sim
Sign-in with your pilot id or email,
or register
Callsign
Passwort

Schedule Details

Flight Number: OEO2826
Departure: Munich Airport (EDDM) at 19:55
Arrival: Damascus International Airport (OSDI) at 23:40

Weather Information
Getting current METAR information for EDDM 010550Z 06003KT CAVOK M03/M04 Q1031 NOSIG
Getting current METAR information for OSDI 010600Z 00000KT 3000BR SCT030 06/04 Q1018

Schedule Frequency

Route Map